Time;durP1;ratioP1;P1;durP2;ratioP2;P2;SDS_P1;SDS_P2;PMS_P1;PMS_P2;Temp;Humidity;BMP_temperature;BMP_pressure;BME280_temperature;BME280_humidity;BME280_pressure;Samples;Min_cycle;Max_cycle;Signal;HPM_P1;HPM_P2
2022/06/05 00:02:40;;;;;;;12.90;7.05;;;13.60;99.90;;;;;;5053615;28;20398;-50
2022/06/05 00:05:14;;;;;;;9.10;6.30;;;13.50;99.90;;;;;;5053304;28;20479;-49
2022/06/05 00:07:46;;;;;;;10.90;6.93;;;13.60;99.90;;;;;;5052766;28;20040;-52
2022/06/05 00:10:25;;;;;;;12.15;6.60;;;13.60;99.90;;;;;;5071732;28;20047;-50
2022/06/05 00:13:14;;;;;;;13.35;7.07;;;13.60;99.90;;;;;;5071206;28;20040;-51
2022/06/05 00:15:41;;;;;;;12.80;7.07;;;13.40;99.90;;;;;;5071339;28;20040;-51
2022/06/05 00:18:06;;;;;;;14.85;7.70;;;13.40;99.90;;;;;;5071294;28;20056;-48
2022/06/05 00:20:32;;;;;;;12.85;7.45;;;13.50;99.90;;;;;;5071094;28;20045;-49
2022/06/05 00:22:58;;;;;;;12.70;7.07;;;13.40;99.90;;;;;;5071318;28;20396;-49
2022/06/05 00:25:42;;;;;;;11.77;6.75;;;13.30;99.90;;;;;;5071554;28;20113;-50
2022/06/05 00:28:37;;;;;;;13.87;7.47;;;13.20;99.90;;;;;;5071244;28;20037;-48
2022/06/05 00:31:20;;;;;;;13.63;7.10;;;13.30;99.90;;;;;;5070493;28;20109;-48
2022/06/05 00:33:46;;;;;;;11.05;7.35;;;13.30;99.90;;;;;;5053076;28;20095;-49
2022/06/05 00:36:41;;;;;;;13.38;7.68;;;13.20;99.90;;;;;;5069687;28;20044;-46
2022/06/05 00:39:14;;;;;;;;;;;13.30;99.90;;;;;;5071760;28;20447;-46
2022/06/05 00:41:58;;;;;;;15.82;7.68;;;13.20;99.90;;;;;;5070792;28;19924;-45
2022/06/05 00:44:40;;;;;;;9.68;7.53;;;13.20;99.90;;;;;;5053260;28;20379;-46
2022/06/05 00:47:08;;;;;;;14.05;7.85;;;13.10;99.90;;;;;;5071051;28;20048;-50
2022/06/05 00:49:48;;;;;;;14.38;7.63;;;13.20;99.90;;;;;;5070463;28;20039;-47
2022/06/05 00:52:15;;;;;;;11.18;7.72;;;13.10;99.90;;;;;;5071055;28;20124;-50
2022/06/05 00:54:41;;;;;;;11.93;7.68;;;13.10;99.90;;;;;;5070570;28;20032;-48
2022/06/05 00:57:09;;;;;;;14.52;8.13;;;13.10;99.90;;;;;;5052561;28;20083;-46
2022/06/05 00:59:37;;;;;;;13.55;7.72;;;13.10;99.90;;;;;;5070462;28;20063;-46
2022/06/05 01:02:03;;;;;;;12.40;7.82;;;13.00;99.90;;;;;;5070092;28;20033;-46
2022/06/05 01:04:31;;;;;;;14.75;7.45;;;13.00;99.90;;;;;;5070856;28;20036;-49
2022/06/05 01:06:57;;;;;;;15.30;8.55;;;12.90;99.90;;;;;;5070456;28;20164;-47
2022/06/05 01:09:22;;;;;;;13.65;8.40;;;13.00;99.90;;;;;;5070648;28;20115;-48
2022/06/05 01:11:56;;;;;;;13.30;8.13;;;12.90;99.90;;;;;;5069133;28;20040;-47
2022/06/05 01:14:49;;;;;;;14.43;8.05;;;12.80;99.90;;;;;;5052201;28;20040;-46
2022/06/05 01:17:46;;;;;;;12.43;8.38;;;12.90;99.90;;;;;;5070147;28;20044;-47
2022/06/05 01:20:49;;;;;;;16.67;7.95;;;12.90;99.90;;;;;;5026055;28;20059;-50
2022/06/05 01:23:36;;;;;;;10.95;7.72;;;12.90;99.90;;;;;;5028147;28;20091;-46
2022/06/05 01:26:20;;;;;;;12.85;7.93;;;12.80;99.90;;;;;;5070552;28;20059;-51
2022/06/05 01:29:01;;;;;;;17.90;9.90;;;12.70;99.90;;;;;;5070777;28;20468;-48
2022/06/05 01:31:48;;;;;;;15.43;8.55;;;12.70;99.90;;;;;;5070005;28;20052;-46
2022/06/05 01:34:24;;;;;;;13.30;8.82;;;12.80;99.90;;;;;;5070066;28;20036;-49
2022/06/05 01:36:54;;;;;;;14.43;8.32;;;12.80;99.90;;;;;;5070121;28;20086;-47
2022/06/05 01:39:35;;;;;;;14.40;8.32;;;12.80;99.90;;;;;;5069422;28;20115;-48
2022/06/05 01:42:07;;;;;;;13.93;9.27;;;12.70;99.90;;;;;;5070039;28;20071;-49
2022/06/05 01:44:43;;;;;;;15.23;9.23;;;12.70;99.90;;;;;;5052378;28;20572;-45
2022/06/05 01:47:25;;;;;;;15.90;9.23;;;12.70;99.90;;;;;;5069992;28;20063;-47
2022/06/05 01:50:11;;;;;;;16.17;9.68;;;12.80;99.90;;;;;;5069792;28;20169;-47
2022/06/05 01:52:44;;;;;;;15.63;9.75;;;12.70;99.90;;;;;;5069906;28;20120;-49
2022/06/05 01:55:16;;;;;;;16.13;9.33;;;12.60;99.90;;;;;;5070122;28;20032;-50
2022/06/05 01:57:42;;;;;;;15.82;9.73;;;12.70;99.90;;;;;;5069900;28;20449;-45
2022/06/05 02:00:19;;;;;;;14.70;8.77;;;12.60;99.90;;;;;;5070216;28;20468;-51
2022/06/05 02:02:55;;;;;;;16.70;10.65;;;12.70;99.90;;;;;;5070324;28;20187;-50
2022/06/05 02:05:26;;;;;;;16.52;10.13;;;12.70;99.90;;;;;;5069600;28;21113;-52
2022/06/05 02:07:57;;;;;;;17.55;9.93;;;12.50;99.90;;;;;;5068720;28;20093;-48
2022/06/05 02:10:47;;;;;;;18.33;10.32;;;12.60;99.90;;;;;;5070074;28;20089;-50
2022/06/05 02:13:13;;;;;;;16.50;10.15;;;12.60;99.90;;;;;;5069855;28;20392;-49
2022/06/05 02:15:38;;;;;;;15.80;10.75;;;12.60;99.90;;;;;;5069781;28;20048;-47
2022/06/05 02:18:05;;;;;;;14.68;10.45;;;12.50;99.90;;;;;;5069442;28;20113;-48
2022/06/05 02:20:31;;;;;;;18.20;11.63;;;12.60;99.90;;;;;;5069177;28;20052;-51
2022/06/05 02:22:57;;;;;;;20.85;11.38;;;12.60;99.90;;;;;;5069710;28;20028;-52
2022/06/05 02:25:25;;;;;;;19.25;11.85;;;12.60;99.90;;;;;;5052012;28;20042;-50
2022/06/05 02:27:58;;;;;;;17.63;11.43;;;12.60;99.90;;;;;;5072226;28;20041;-47
2022/06/05 02:30:31;;;;;;;19.17;11.87;;;12.60;99.90;;;;;;5073673;28;20513;-47
2022/06/05 02:33:15;;;;;;;19.13;11.98;;;12.60;99.90;;;;;;5055300;28;20390;-46
2022/06/05 02:35:52;;;;;;;18.48;10.82;;;12.60;99.90;;;;;;5073785;28;20538;-51
2022/06/05 02:38:53;;;;;;;17.45;11.48;;;12.60;99.90;;;;;;5072599;28;20341;-46
2022/06/05 02:41:40;;;;;;;19.13;12.05;;;12.60;99.90;;;;;;5054017;28;20056;-49
2022/06/05 02:44:31;;;;;;;20.67;12.35;;;12.60;99.90;;;;;;5073582;28;20025;-49
2022/06/05 02:47:15;;;;;;;18.95;12.63;;;12.60;99.90;;;;;;5058164;28;20083;-49
2022/06/05 02:49:49;;;;;;;19.83;11.80;;;12.70;99.90;;;;;;5072636;28;20070;-46
2022/06/05 02:52:15;;;;;;;;;;;12.60;99.90;;;;;;5073414;28;20570;-46
2022/06/05 02:54:48;;;;;;;18.02;12.23;;;12.70;99.90;;;;;;5073281;28;20010;-50
2022/06/05 02:57:14;;;;;;;19.83;12.27;;;12.70;99.90;;;;;;5073018;28;20129;-48
2022/06/05 02:59:39;;;;;;;19.50;11.75;;;12.60;99.90;;;;;;5072902;28;20353;-51
2022/06/05 03:04:49;;;;;;;18.25;12.38;;;12.60;99.90;;;;;;5072753;28;20036;-49
2022/06/05 03:07:16;;;;;;;19.15;12.75;;;12.60;99.90;;;;;;5071977;28;20116;-46
2022/06/05 03:09:41;;;;;;;18.83;12.07;;;12.70;99.90;;;;;;5073207;28;20060;-49
2022/06/05 03:12:07;;;;;;;21.00;12.43;;;12.60;99.90;;;;;;5072565;28;20458;-48
2022/06/05 03:14:33;;;;;;;20.15;12.30;;;12.60;99.90;;;;;;5054961;28;20090;-48
2022/06/05 03:16:59;;;;;;;18.05;12.45;;;12.70;99.90;;;;;;5072177;28;20506;-49
2022/06/05 03:19:24;;;;;;;20.05;12.50;;;12.60;99.90;;;;;;5072603;28;20029;-48
2022/06/05 03:21:50;;;;;;;18.15;12.23;;;12.50;99.90;;;;;;5072632;28;20028;-48
2022/06/05 03:24:16;;;;;;;17.90;11.90;;;12.60;99.90;;;;;;5072527;28;20036;-48
2022/06/05 03:26:42;;;;;;;18.10;12.73;;;12.70;99.90;;;;;;5072412;28;20032;-47
2022/06/05 03:29:08;;;;;;;19.45;12.18;;;12.60;99.90;;;;;;5037761;28;20036;-48
2022/06/05 03:31:35;;;;;;;19.13;12.80;;;12.60;99.90;;;;;;5054415;28;20403;-45
2022/06/05 03:34:01;;;;;;;21.63;12.00;;;12.60;99.90;;;;;;5072169;28;20101;-47
2022/06/05 03:36:26;;;;;;;19.67;12.82;;;12.50;99.90;;;;;;5072506;28;20028;-46
2022/06/05 03:38:52;;;;;;;19.30;11.90;;;12.70;99.90;;;;;;5070752;28;20048;-48
2022/06/05 03:41:18;;;;;;;19.80;12.68;;;12.60;99.90;;;;;;5071954;28;20051;-49
2022/06/05 03:43:45;;;;;;;18.45;12.60;;;12.50;99.90;;;;;;5071756;28;20032;-46
2022/06/05 03:46:13;;;;;;;18.20;12.30;;;12.60;99.90;;;;;;5071781;28;20032;-47
2022/06/05 03:48:39;;;;;;;19.50;12.82;;;12.60;99.90;;;;;;5071860;28;20047;-50
2022/06/05 03:51:16;;;;;;;20.02;13.02;;;12.50;99.90;;;;;;5071847;28;20040;-46
2022/06/05 03:53:43;;;;;;;17.33;13.25;;;12.60;99.90;;;;;;5070934;28;20502;-48
2022/06/05 03:56:14;;;;;;;17.85;12.48;;;12.60;99.90;;;;;;5072054;28;20064;-47
2022/06/05 03:58:40;;;;;;;17.15;12.18;;;12.60;99.90;;;;;;5071938;28;20040;-47
2022/06/05 04:01:11;;;;;;;19.55;12.45;;;12.70;99.90;;;;;;5054175;28;20132;-49
2022/06/05 04:03:37;;;;;;;24.52;13.23;;;12.60;99.90;;;;;;5053510;28;20041;-47
2022/06/05 04:06:12;;;;;;;19.38;13.10;;;12.60;99.90;;;;;;5071905;28;20032;-48
2022/06/05 04:08:38;;;;;;;;;;;12.70;99.90;;;;;;5072314;28;20101;-46
2022/06/05 04:11:08;;;;;;;18.77;13.00;;;12.70;99.90;;;;;;5071628;28;19965;-48
2022/06/05 04:13:34;;;;;;;19.52;13.45;;;12.70;99.90;;;;;;5070828;28;20119;-49
2022/06/05 04:16:00;;;;;;;20.08;13.13;;;12.70;99.90;;;;;;5071248;28;20127;-49
2022/06/05 04:18:26;;;;;;;20.48;12.85;;;12.90;99.90;;;;;;5071709;28;20040;-48
2022/06/05 04:20:52;;;;;;;18.08;12.98;;;12.90;99.90;;;;;;5053172;28;20488;-49
2022/06/05 04:23:17;;;;;;;18.55;12.82;;;12.90;99.90;;;;;;5053455;28;20056;-47
2022/06/05 04:25:44;;;;;;;19.17;12.80;;;12.90;99.90;;;;;;5071392;28;20037;-48
2022/06/05 04:28:10;;;;;;;20.58;12.50;;;12.90;99.90;;;;;;5071399;28;20045;-48
2022/06/05 04:30:39;;;;;;;19.00;13.57;;;13.00;99.90;;;;;;5053345;28;20037;-47
2022/06/05 04:33:06;;;;;;;18.92;12.68;;;13.00;99.90;;;;;;5070976;28;20036;-48
2022/06/05 04:35:33;;;;;;;20.08;13.13;;;13.10;99.90;;;;;;5070929;28;20044;-46
2022/06/05 04:37:58;;;;;;;20.67;12.88;;;13.10;99.90;;;;;;5071267;28;20032;-47
2022/06/05 04:40:24;;;;;;;19.15;12.45;;;13.10;99.90;;;;;;5071033;28;20040;-47
2022/06/05 04:42:50;;;;;;;18.17;12.38;;;13.10;99.90;;;;;;5069800;28;20103;-48
2022/06/05 04:45:16;;;;;;;18.75;12.40;;;13.10;99.90;;;;;;5053164;28;20102;-47
2022/06/05 04:47:41;;;;;;;17.92;12.57;;;13.20;99.90;;;;;;5071034;28;20043;-48
2022/06/05 04:50:09;;;;;;;21.63;13.15;;;13.20;99.90;;;;;;5069956;28;20036;-48
2022/06/05 04:52:34;;;;;;;18.15;12.32;;;13.20;99.90;;;;;;5070534;28;20037;-47
2022/06/05 04:55:00;;;;;;;17.30;12.70;;;13.10;99.90;;;;;;5052715;28;20030;-47
2022/06/05 04:57:26;;;;;;;18.83;11.57;;;13.20;99.90;;;;;;5070782;28;20040;-49
2022/06/05 04:59:52;;;;;;;19.80;12.70;;;13.20;99.90;;;;;;5052564;28;20476;-49
2022/06/05 05:02:18;;;;;;;17.23;11.85;;;13.20;99.90;;;;;;5052496;28;20037;-50
2022/06/05 05:04:47;;;;;;;19.92;11.88;;;13.30;99.90;;;;;;5070540;28;20066;-46
2022/06/05 05:07:16;;;;;;;22.08;13.02;;;13.30;99.90;;;;;;5070255;28;20044;-48
2022/06/05 05:09:42;;;;;;;18.05;11.77;;;13.40;99.90;;;;;;5070329;28;20032;-46
2022/06/05 05:12:09;;;;;;;16.63;12.10;;;13.30;99.90;;;;;;5070496;28;20043;-48
2022/06/05 05:14:37;;;;;;;20.85;12.52;;;13.30;99.90;;;;;;5070614;28;20040;-50
2022/06/05 05:17:03;;;;;;;18.45;12.48;;;13.40;99.90;;;;;;5070287;28;20054;-48
2022/06/05 05:19:29;;;;;;;18.35;11.88;;;13.40;99.90;;;;;;5070389;28;20048;-48
2022/06/05 05:21:55;;;;;;;15.98;11.68;;;13.50;99.90;;;;;;5052379;28;20434;-48
2022/06/05 05:24:20;;;;;;;18.33;12.75;;;13.50;99.90;;;;;;5052384;28;20029;-46
2022/06/05 05:26:46;;;;;;;17.52;12.40;;;13.60;99.90;;;;;;5070189;28;20454;-47
2022/06/05 05:29:12;;;;;;;17.58;11.63;;;13.60;99.90;;;;;;5070645;28;20029;-46
2022/06/05 05:31:40;;;;;;;18.85;12.32;;;13.60;99.90;;;;;;5070213;28;20037;-47
2022/06/05 05:34:06;;;;;;;16.25;11.90;;;13.70;99.90;;;;;;5070214;28;20398;-50
2022/06/05 05:36:33;;;;;;;19.38;12.15;;;13.70;99.90;;;;;;5070401;28;20490;-52
2022/06/05 05:44:28;;;;;;;19.33;12.80;;;13.80;99.90;;;;;;5069933;28;20048;-47
2022/06/05 05:46:54;;;;;;;20.48;12.40;;;14.00;99.90;;;;;;5070081;28;20029;-48
2022/06/05 05:49:20;;;;;;;19.85;12.48;;;13.90;99.90;;;;;;5070080;28;20082;-47
2022/06/05 05:51:45;;;;;;;19.42;12.07;;;14.10;99.90;;;;;;5069840;28;20127;-51
2022/06/05 05:54:11;;;;;;;16.25;12.02;;;14.20;99.90;;;;;;5070237;28;20048;-52
2022/06/05 05:56:38;;;;;;;16.08;11.98;;;14.20;99.90;;;;;;5069693;28;20036;-49
2022/06/05 05:59:04;;;;;;;17.20;13.23;;;14.30;99.90;;;;;;5069941;28;20549;-51
2022/06/05 06:01:30;;;;;;;16.13;11.40;;;14.40;99.90;;;;;;5052450;28;20135;-49
2022/06/05 06:03:56;;;;;;;18.88;12.07;;;14.30;99.90;;;;;;5074153;28;20040;-47
2022/06/05 06:06:42;;;;;;;15.85;11.90;;;14.50;99.90;;;;;;5074349;28;20032;-49
2022/06/05 06:09:08;;;;;;;19.13;11.73;;;14.50;99.90;;;;;;5072783;28;20489;-48
2022/06/05 06:11:33;;;;;;;16.77;12.05;;;14.60;99.90;;;;;;5073932;28;20037;-47
2022/06/05 06:13:59;;;;;;;19.40;11.73;;;14.60;99.90;;;;;;5073546;28;20102;-47
2022/06/05 06:16:28;;;;;;;18.67;12.20;;;14.60;99.90;;;;;;5073808;28;20197;-49
2022/06/05 06:18:56;;;;;;;16.42;11.25;;;14.80;99.90;;;;;;5073725;28;20483;-48
2022/06/05 06:21:22;;;;;;;14.88;11.38;;;14.80;99.90;;;;;;5073505;28;20044;-46
2022/06/05 06:23:47;;;;;;;16.00;11.50;;;14.90;99.90;;;;;;5055522;28;20090;-50
2022/06/05 06:26:13;;;;;;;16.60;12.25;;;14.90;99.90;;;;;;5073589;28;20606;-48
2022/06/05 06:28:39;;;;;;;18.20;12.02;;;15.00;99.90;;;;;;5073672;28;20075;-47
2022/06/05 06:31:10;;;;;;;15.00;11.68;;;15.10;99.90;;;;;;5073727;28;20047;-47
2022/06/05 06:33:36;;;;;;;15.77;11.52;;;15.20;99.90;;;;;;5073859;28;20094;-48
2022/06/05 06:36:04;;;;;;;16.90;12.13;;;15.20;99.90;;;;;;5055769;28;20024;-46
2022/06/05 06:38:30;;;;;;;17.52;11.13;;;15.30;99.90;;;;;;5073635;28;20033;-46
2022/06/05 06:41:05;;;;;;;15.07;11.05;;;15.40;99.90;;;;;;5073101;28;20033;-49
2022/06/05 06:43:31;;;;;;;19.13;11.02;;;15.50;99.90;;;;;;5071959;28;20695;-46
2022/06/05 06:45:57;;;;;;;15.38;10.60;;;15.60;99.90;;;;;;5073196;28;20032;-47
2022/06/05 06:48:23;;;;;;;13.90;10.50;;;15.70;99.90;;;;;;5072702;28;20463;-51
2022/06/05 06:50:49;;;;;;;15.98;11.13;;;15.80;99.90;;;;;;5072988;28;20048;-50
2022/06/05 06:53:14;;;;;;;14.43;10.52;;;15.90;99.90;;;;;;5073088;28;20556;-51
2022/06/05 06:55:40;;;;;;;18.23;11.48;;;15.90;99.90;;;;;;5073028;28;20037;-48
2022/06/05 06:58:06;;;;;;;14.98;10.65;;;15.90;99.90;;;;;;5073105;28;20480;-46
2022/06/05 07:00:32;;;;;;;14.80;10.77;;;15.90;99.90;;;;;;5055029;28;20036;-51
2022/06/05 07:02:57;;;;;;;15.43;11.10;;;15.90;99.90;;;;;;5072232;28;20051;-49
2022/06/05 07:05:23;;;;;;;14.82;10.43;;;15.90;99.90;;;;;;5072704;28;20083;-47
2022/06/05 07:07:49;;;;;;;15.27;11.05;;;15.90;99.90;;;;;;5072720;28;20093;-47
2022/06/05 07:10:14;;;;;;;15.68;10.52;;;16.00;99.90;;;;;;5072286;28;20127;-48
2022/06/05 07:12:40;;;;;;;15.70;10.18;;;15.90;99.90;;;;;;5072493;28;20060;-50
2022/06/05 07:15:07;;;;;;;13.80;10.13;;;16.00;99.90;;;;;;5054635;28;20479;-51
2022/06/05 07:17:33;;;;;;;14.68;10.63;;;16.00;99.90;;;;;;5072485;28;20060;-47
2022/06/05 07:19:59;;;;;;;15.57;9.82;;;16.10;99.90;;;;;;5054457;28;21192;-48
2022/06/05 07:22:25;;;;;;;14.30;10.20;;;16.10;99.90;;;;;;5072267;28;20043;-47
2022/06/05 07:24:51;;;;;;;13.65;10.00;;;16.20;99.90;;;;;;5072806;28;20062;-48
2022/06/05 07:27:18;;;;;;;13.60;9.88;;;16.30;99.90;;;;;;5072771;28;20044;-49
2022/06/05 07:29:43;;;;;;;14.02;10.23;;;16.30;99.90;;;;;;5072135;28;20102;-45
2022/06/05 07:32:11;;;;;;;13.32;9.40;;;16.40;99.90;;;;;;5072618;28;20406;-46
2022/06/05 07:34:37;;;;;;;13.10;8.90;;;16.50;99.90;;;;;;5054687;28;20053;-48
2022/06/05 07:37:03;;;;;;;12.90;9.98;;;16.60;99.90;;;;;;5072672;28;20451;-46
2022/06/05 07:39:29;;;;;;;15.60;9.82;;;16.70;99.90;;;;;;5071293;28;20040;-46
2022/06/05 07:41:58;;;;;;;13.90;9.50;;;16.80;99.90;;;;;;5072277;28;20126;-48
2022/06/05 07:44:25;;;;;;;14.50;9.98;;;16.90;99.90;;;;;;5072292;28;20044;-48
2022/06/05 07:46:51;;;;;;;14.57;9.50;;;17.00;99.90;;;;;;5053892;28;20115;-51
2022/06/05 07:49:17;;;;;;;12.93;9.25;;;17.00;99.90;;;;;;5072161;28;20484;-49
2022/06/05 07:54:28;;;;;;;11.88;8.65;;;17.30;99.90;;;;;;5071759;28;20052;-46
2022/06/05 07:57:08;;;;;;;13.15;9.65;;;17.40;99.90;;;;;;5071805;28;20040;-48
2022/06/05 07:59:37;;;;;;;14.75;10.15;;;17.50;99.90;;;;;;5072345;28;20044;-46
2022/06/05 08:02:07;;;;;;;12.70;8.98;;;17.50;99.90;;;;;;5036707;28;20041;-49
2022/06/05 08:04:35;;;;;;;14.30;9.15;;;17.60;99.90;;;;;;5072078;28;20164;-50
2022/06/05 08:07:03;;;;;;;12.82;9.40;;;17.70;99.90;;;;;;5071541;28;20107;-51
2022/06/05 08:09:30;;;;;;;15.07;9.30;;;17.70;99.90;;;;;;5071993;28;20063;-48
2022/06/05 08:11:56;;;;;;;13.23;8.57;;;17.80;99.90;;;;;;5053648;28;20032;-48
2022/06/05 08:14:22;;;;;;;12.07;9.05;;;17.90;99.90;;;;;;5072037;28;20041;-50
2022/06/05 08:16:48;;;;;;;13.40;9.18;;;18.00;99.90;;;;;;5071392;28;20083;-49
2022/06/05 08:19:18;;;;;;;11.95;8.80;;;18.10;99.90;;;;;;5070368;28;20554;-47
2022/06/05 08:21:44;;;;;;;13.15;9.10;;;18.20;99.90;;;;;;5071007;28;20029;-48
2022/06/05 08:24:10;;;;;;;13.27;9.15;;;18.30;99.90;;;;;;5070898;28;20036;-48
2022/06/05 08:26:36;;;;;;;13.48;9.13;;;18.40;99.90;;;;;;5071485;28;20509;-45
2022/06/05 08:29:03;;;;;;;13.07;8.18;;;18.60;99.90;;;;;;5036537;28;20036;-49
2022/06/05 08:31:29;;;;;;;11.43;8.60;;;18.70;99.90;;;;;;5071224;28;20044;-48
2022/06/05 08:34:01;;;;;;;14.50;8.15;;;18.80;99.90;;;;;;5069827;28;20037;-49
2022/06/05 08:36:26;;;;;;;12.30;8.52;;;19.00;99.90;;;;;;5071289;28;20499;-46
2022/06/05 08:41:50;;;;;;;;;;;19.30;99.90;;;;;;5071645;28;20051;-49
2022/06/05 08:44:27;;;;;;;10.85;7.75;;;19.40;99.90;;;;;;5070823;28;19923;-50
2022/06/05 08:47:20;;;;;;;9.63;7.88;;;19.50;99.90;;;;;;5071140;28;20036;-50
2022/06/05 08:49:53;;;;;;;12.48;7.57;;;19.70;99.90;;;;;;5071024;28;20494;-46
2022/06/05 08:52:27;;;;;;;11.30;7.10;;;19.90;99.90;;;;;;5071040;28;20056;-47
2022/06/05 08:55:17;;;;;;;12.75;7.53;;;20.00;99.90;;;;;;5052800;28;20043;-45
2022/06/05 08:57:51;;;;;;;12.65;7.60;;;20.20;99.90;;;;;;5070889;28;20044;-47
2022/06/05 09:00:31;;;;;;;10.05;7.25;;;20.20;99.90;;;;;;5070348;28;20119;-48
2022/06/05 09:03:23;;;;;;;11.25;7.25;;;20.30;99.90;;;;;;5070614;28;20043;-48
2022/06/05 09:06:06;;;;;;;10.63;7.60;;;20.40;99.90;;;;;;5070567;28;20074;-48
2022/06/05 09:08:36;;;;;;;9.93;7.13;;;20.60;99.90;;;;;;5070543;28;20051;-51
2022/06/05 09:11:06;;;;;;;9.85;7.43;;;20.60;99.90;;;;;;5069893;28;20129;-50
2022/06/05 09:14:12;;;;;;;9.57;7.03;;;20.70;99.90;;;;;;5070406;28;20047;-47
2022/06/05 09:16:43;;;;;;;10.20;7.38;;;20.80;99.90;;;;;;5020131;28;20056;-48
2022/06/05 09:19:12;;;;;;;10.93;7.45;;;20.90;99.90;;;;;;5070326;28;20105;-48
2022/06/05 09:21:42;;;;;;;11.50;6.80;;;20.80;99.90;;;;;;5052511;28;20093;-48
2022/06/05 09:24:43;;;;;;;11.60;6.93;;;20.90;99.90;;;;;;5052698;28;20040;-48
2022/06/05 09:27:32;;;;;;;10.25;6.57;;;21.00;99.90;;;;;;5016739;28;20487;-48
2022/06/05 09:30:09;;;;;;;9.25;6.65;;;21.10;99.90;;;;;;5023454;28;20052;-48
2022/06/05 09:32:56;;;;;;;8.98;6.53;;;21.10;99.90;;;;;;5070351;28;20105;-47
2022/06/05 09:35:40;;;;;;;8.90;6.53;;;21.20;99.90;;;;;;5070157;28;20068;-48
2022/06/05 09:38:11;;;;;;;13.38;7.32;;;21.30;99.90;;;;;;5070259;28;20036;-48
2022/06/05 09:40:39;;;;;;;10.95;6.60;;;21.40;99.90;;;;;;5070204;28;20044;-48
2022/06/05 09:43:43;;;;;;;9.07;6.53;;;21.50;99.90;;;;;;5069020;28;20110;-46
2022/06/05 09:46:28;;;;;;;9.45;5.82;;;21.50;99.90;;;;;;4986609;28;20131;-48
2022/06/05 09:49:17;;;;;;;8.77;6.28;;;21.60;99.90;;;;;;5069926;28;20038;-46
2022/06/05 09:51:45;;;;;;;7.25;5.47;;;21.70;99.90;;;;;;5069185;28;20052;-48
2022/06/05 09:54:26;;;;;;;8.05;5.90;;;21.90;99.90;;;;;;5069532;28;20125;-47
2022/06/05 10:00:13;;;;;;;10.13;6.15;;;21.80;99.90;;;;;;5070132;28;20410;-50
2022/06/05 10:02:38;;;;;;;8.20;5.55;;;21.80;99.90;;;;;;5069956;28;20040;-48
2022/06/05 10:05:21;;;;;;;9.50;6.30;;;21.90;99.90;;;;;;5068665;28;20040;-51
2022/06/05 10:07:53;;;;;;;10.45;6.05;;;22.00;99.90;;;;;;5034078;28;20049;-48
2022/06/05 10:10:31;;;;;;;8.43;5.57;;;22.20;99.90;;;;;;5069838;28;20058;-48
2022/06/05 10:13:22;;;;;;;7.55;6.10;;;22.20;99.90;;;;;;5051694;28;20036;-47
2022/06/05 10:16:03;;;;;;;8.07;5.97;;;22.20;99.90;;;;;;5034099;28;20055;-47
2022/06/05 10:18:56;;;;;;;9.02;5.93;;;22.30;99.90;;;;;;5069948;28;20051;-51
2022/06/05 10:21:24;;;;;;;9.10;6.68;;;22.30;99.90;;;;;;5069469;28;20040;-47
2022/06/05 10:24:08;;;;;;;8.50;6.13;;;22.30;99.90;;;;;;5069338;28;20047;-48
2022/06/05 10:26:39;;;;;;;9.52;5.78;;;22.40;99.90;;;;;;5069953;28;20032;-47
2022/06/05 10:29:21;;;;;;;10.05;6.72;;;22.40;99.90;;;;;;5069841;28;20039;-49
2022/06/05 10:31:59;;;;;;;8.10;6.20;;;22.50;99.90;;;;;;5069514;28;20037;-47
2022/06/05 10:34:41;;;;;;;8.98;6.60;;;22.50;99.90;;;;;;5069190;28;20048;-47
2022/06/05 10:37:31;;;;;;;8.27;6.07;;;22.50;99.90;;;;;;5069772;28;20071;-48
2022/06/05 10:40:31;;;;;;;7.85;5.97;;;22.40;99.90;;;;;;5069790;28;20120;-50
2022/06/05 10:43:20;;;;;;;8.25;6.38;;;22.40;99.90;;;;;;5069518;28;20398;-49
2022/06/05 10:46:01;;;;;;;8.95;6.18;;;22.50;99.90;;;;;;5069769;28;20194;-46
2022/06/05 10:48:52;;;;;;;12.13;6.40;;;22.40;99.90;;;;;;5071115;28;20549;-47
2022/06/05 10:51:27;;;;;;;8.93;5.78;;;22.40;99.90;;;;;;5072935;28;20040;-46
2022/06/05 10:54:14;;;;;;;9.65;6.78;;;22.40;99.90;;;;;;5072984;28;20109;-47
2022/06/05 10:56:58;;;;;;;9.70;6.22;;;22.40;99.90;;;;;;5072670;28;20083;-48
2022/06/05 11:00:00;;;;;;;8.02;6.40;;;22.40;99.90;;;;;;5072877;28;20051;-46
2022/06/05 11:02:56;;;;;;;7.75;5.88;;;22.40;99.90;;;;;;5054940;28;20048;-46
2022/06/05 11:05:59;;;;;;;9.82;5.35;;;22.40;99.90;;;;;;5072022;28;20040;-46
2022/06/05 11:08:51;;;;;;;9.38;5.95;;;22.30;99.90;;;;;;5072304;28;20071;-49
2022/06/05 11:14:22;;;;;;;7.30;5.90;;;22.30;99.90;;;;;;5072308;28;20095;-49
2022/06/05 11:16:56;;;;;;;9.32;6.30;;;22.30;99.90;;;;;;5072275;28;20060;-46
2022/06/05 11:19:35;;;;;;;7.15;5.93;;;22.30;99.90;;;;;;5072633;28;20425;-49
2022/06/05 11:22:08;;;;;;;7.85;5.95;;;22.30;99.90;;;;;;5072541;28;20040;-49
2022/06/05 11:24:42;;;;;;;8.43;5.90;;;22.30;99.90;;;;;;5054688;28;20040;-52
2022/06/05 11:27:13;;;;;;;7.78;5.68;;;22.40;99.90;;;;;;5072632;28;20369;-52
2022/06/05 11:30:04;;;;;;;7.55;5.88;;;22.30;99.90;;;;;;5072407;28;20036;-48
2022/06/05 11:32:57;;;;;;;8.70;5.40;;;22.40;99.90;;;;;;5072531;28;20345;-50
2022/06/05 11:35:29;;;;;;;7.45;5.55;;;22.40;99.90;;;;;;5070428;28;20036;-51
2022/06/05 11:38:33;;;;;;;8.45;6.22;;;22.40;99.90;;;;;;5072127;28;20060;-49
2022/06/05 11:41:17;;;;;;;8.02;5.90;;;22.50;99.90;;;;;;5072142;28;20514;-47
2022/06/05 11:43:43;;;;;;;11.52;7.15;;;22.50;99.90;;;;;;5053979;28;20041;-47
2022/06/05 11:46:11;;;;;;;10.35;6.70;;;22.50;99.90;;;;;;5072289;28;20327;-49
2022/06/05 11:48:55;;;;;;;12.23;6.28;;;22.50;99.90;;;;;;5071914;28;20137;-48
2022/06/05 11:51:41;;;;;;;8.68;6.10;;;22.50;99.90;;;;;;5072364;28;20036;-49
2022/06/05 11:54:28;;;;;;;8.07;6.43;;;22.50;99.90;;;;;;5071892;28;20044;-50
2022/06/05 11:57:06;;;;;;;8.95;6.57;;;22.50;99.90;;;;;;5071595;28;20036;-47
2022/06/05 12:00:04;;;;;;;9.93;6.53;;;22.50;99.90;;;;;;5070872;28;20526;-47
2022/06/05 12:02:58;;;;;;;8.82;6.32;;;22.50;99.90;;;;;;5053634;28;20037;-49
2022/06/05 12:05:56;;;;;;;8.13;6.70;;;22.50;99.90;;;;;;5071955;28;20168;-48
2022/06/05 12:08:33;;;;;;;12.05;6.80;;;22.50;99.90;;;;;;5070169;28;20040;-50
2022/06/05 12:11:11;;;;;;;8.65;6.07;;;22.50;99.90;;;;;;5070773;28;20105;-50
2022/06/05 12:13:39;;;;;;;12.10;6.35;;;22.50;99.90;;;;;;5071612;28;20059;-52
2022/06/05 12:16:19;;;;;;;8.98;6.43;;;22.50;99.90;;;;;;5071983;28;20165;-50
2022/06/05 12:18:53;;;;;;;8.73;5.90;;;22.50;99.90;;;;;;5071485;28;20128;-51
2022/06/05 12:21:21;;;;;;;8.93;5.93;;;22.50;99.90;;;;;;5071552;28;20044;-52
2022/06/05 12:24:07;;;;;;;10.18;6.25;;;22.60;99.90;;;;;;5071422;28;20033;-50
2022/06/05 12:26:48;;;;;;;9.82;6.32;;;22.60;99.90;;;;;;5070366;28;20408;-48
2022/06/05 12:29:18;;;;;;;9.80;6.30;;;22.60;99.90;;;;;;5071696;28;20437;-49
2022/06/05 12:32:08;;;;;;;8.23;6.18;;;22.60;99.90;;;;;;5068558;28;20057;-47
2022/06/05 12:34:44;;;;;;;9.50;6.53;;;22.70;99.90;;;;;;5064103;28;20064;-50
2022/06/05 12:37:26;;;;;;;9.82;6.00;;;22.80;99.90;;;;;;5067784;28;20044;-50
2022/06/05 12:39:54;;;;;;;10.57;6.05;;;22.90;99.90;;;;;;5067899;28;20052;-47
2022/06/05 12:42:38;;;;;;;10.48;7.30;;;23.10;99.90;;;;;;5068058;28;20032;-49
2022/06/05 12:45:24;;;;;;;;;;;23.10;99.90;;;;;;5069941;28;20047;-48
2022/06/05 12:48:28;;;;;;;7.95;6.15;;;23.20;99.90;;;;;;5068120;28;19932;-51
2022/06/05 12:51:06;;;;;;;7.63;6.00;;;23.20;99.90;;;;;;5005454;28;20037;-48
2022/06/05 12:53:53;;;;;;;7.03;5.90;;;23.20;99.90;;;;;;5058932;28;20302;-48
2022/06/05 12:56:25;;;;;;;7.07;5.53;;;23.20;99.90;;;;;;5065209;28;20036;-50
2022/06/05 12:59:22;;;;;;;10.48;5.53;;;23.20;99.90;;;;;;5051014;28;20052;-47
2022/06/05 13:01:58;;;;;;;7.80;5.60;;;23.30;99.90;;;;;;5067460;28;20394;-49
2022/06/05 13:04:54;;;;;;;7.20;5.32;;;23.30;99.90;;;;;;5066285;28;20033;-52
2022/06/05 13:07:45;;;;;;;8.65;6.63;;;23.40;99.90;;;;;;5049046;28;20044;-50
2022/06/05 13:10:31;;;;;;;9.38;6.30;;;23.30;99.90;;;;;;5067834;28;20032;-50
2022/06/05 13:13:12;;;;;;;9.10;6.78;;;23.40;99.90;;;;;;5067470;28;20044;-51
2022/06/05 13:15:51;;;;;;;8.73;5.65;;;23.30;99.90;;;;;;5066887;28;20087;-47
2022/06/05 13:18:46;;;;;;;8.07;5.85;;;23.40;99.90;;;;;;5066674;28;20132;-51
2022/06/05 13:21:26;;;;;;;7.53;5.55;;;23.50;99.90;;;;;;5065907;28;20383;-50
2022/06/05 13:24:11;;;;;;;7.95;5.78;;;23.60;99.90;;;;;;5067785;28;20053;-50
2022/06/05 13:26:47;;;;;;;7.90;5.38;;;23.60;99.90;;;;;;5068046;28;20371;-56
2022/06/05 13:29:25;;;;;;;7.97;4.93;;;23.60;99.90;;;;;;5066831;28;20087;-50
2022/06/05 13:32:02;;;;;;;7.10;5.40;;;23.60;99.90;;;;;;5068346;28;20055;-54